sensor_id;sensor_type;location;lat;lon;timestamp;pressure;altitude;pressure_sealevel;temperature;humidity
66385;BME280;53426;55.872;37.462;2023-04-19T00:02:04;100136.19;;;10.18;35.56
66385;BME280;53426;55.872;37.462;2023-04-19T00:04:31;100154.78;;;10.29;35.82
66385;BME280;53426;55.872;37.462;2023-04-19T00:06:58;100161.97;;;10.27;35.74
66385;BME280;53426;55.872;37.462;2023-04-19T00:09:24;100101.56;;;9.85;35.30
66385;BME280;53426;55.872;37.462;2023-04-19T00:11:51;100121.84;;;9.97;35.92
66385;BME280;53426;55.872;37.462;2023-04-19T00:14:17;100104.63;;;9.79;35.93
66385;BME280;53426;55.872;37.462;2023-04-19T00:16:43;100124.94;;;9.91;35.94
66385;BME280;53426;55.872;37.462;2023-04-19T00:19:09;100133.66;;;10.04;35.73
66385;BME280;53426;55.872;37.462;2023-04-19T00:22:02;100167.84;;;10.20;36.11
66385;BME280;53426;55.872;37.462;2023-04-19T00:24:28;100085.63;;;9.74;35.61
66385;BME280;53426;55.872;37.462;2023-04-19T00:27:04;100102.00;;;9.79;36.02
66385;BME280;53426;55.872;37.462;2023-04-19T00:29:29;100156.59;;;10.29;35.97
66385;BME280;53426;55.872;37.462;2023-04-19T00:31:57;100088.56;;;9.82;35.76
66385;BME280;53426;55.872;37.462;2023-04-19T00:34:24;100139.59;;;10.07;36.13
66385;BME280;53426;55.872;37.462;2023-04-19T00:36:55;100167.19;;;10.16;36.13
66385;BME280;53426;55.872;37.462;2023-04-19T00:39:23;100167.84;;;10.20;36.18
66385;BME280;53426;55.872;37.462;2023-04-19T00:41:49;100123.97;;;9.92;36.41
66385;BME280;53426;55.872;37.462;2023-04-19T00:44:18;100124.19;;;9.89;36.81
66385;BME280;53426;55.872;37.462;2023-04-19T00:46:45;100176.72;;;10.19;36.94
66385;BME280;53426;55.872;37.462;2023-04-19T00:49:18;100179.88;;;10.11;37.01
66385;BME280;53426;55.872;37.462;2023-04-19T00:51:45;100172.63;;;10.02;37.57
66385;BME280;53426;55.872;37.462;2023-04-19T00:54:12;100182.25;;;10.03;37.67
66385;BME280;53426;55.872;37.462;2023-04-19T00:56:40;100172.81;;;9.99;37.30
66385;BME280;53426;55.872;37.462;2023-04-19T00:59:07;100164.38;;;9.94;37.35
66385;BME280;53426;55.872;37.462;2023-04-19T01:01:33;100149.69;;;9.90;37.32
66385;BME280;53426;55.872;37.462;2023-04-19T01:04:00;100181.69;;;10.11;37.47
66385;BME280;53426;55.872;37.462;2023-04-19T01:06:27;100175.25;;;10.02;37.16
66385;BME280;53426;55.872;37.462;2023-04-19T01:17:55;100187.66;;;10.01;37.31
66385;BME280;53426;55.872;37.462;2023-04-19T01:20:23;100102.69;;;9.44;37.44
66385;BME280;53426;55.872;37.462;2023-04-19T01:22:49;100182.78;;;9.95;37.84
66385;BME280;53426;55.872;37.462;2023-04-19T01:25:16;100144.53;;;9.76;37.20
66385;BME280;53426;55.872;37.462;2023-04-19T01:27:43;100173.38;;;9.91;37.42
66385;BME280;53426;55.872;37.462;2023-04-19T01:30:11;100147.38;;;9.73;37.74
66385;BME280;53426;55.872;37.462;2023-04-19T01:32:38;100146.66;;;9.71;37.55
66385;BME280;53426;55.872;37.462;2023-04-19T01:35:05;100173.84;;;9.73;37.90
66385;BME280;53426;55.872;37.462;2023-04-19T01:37:34;100152.47;;;9.63;37.68
66385;BME280;53426;55.872;37.462;2023-04-19T01:40:06;100120.06;;;9.48;37.94
66385;BME280;53426;55.872;37.462;2023-04-19T01:42:32;100172.44;;;9.80;37.59
66385;BME280;53426;55.872;37.462;2023-04-19T01:44:59;100158.19;;;9.70;37.81
66385;BME280;53426;55.872;37.462;2023-04-19T01:47:26;100179.63;;;9.78;37.69
66385;BME280;53426;55.872;37.462;2023-04-19T01:49:52;100171.19;;;9.73;37.90
66385;BME280;53426;55.872;37.462;2023-04-19T01:52:19;100162.91;;;9.77;37.78
66385;BME280;53426;55.872;37.462;2023-04-19T01:54:47;100176.47;;;9.85;37.92
66385;BME280;53426;55.872;37.462;2023-04-19T01:57:14;100163.91;;;9.76;38.23
66385;BME280;53426;55.872;37.462;2023-04-19T01:59:41;100169.72;;;9.81;37.98
66385;BME280;53426;55.872;37.462;2023-04-19T02:02:08;100173.91;;;9.84;37.91
66385;BME280;53426;55.872;37.462;2023-04-19T02:04:36;100140.53;;;9.57;37.63
66385;BME280;53426;55.872;37.462;2023-04-19T02:07:05;100151.81;;;9.72;37.97
66385;BME280;53426;55.872;37.462;2023-04-19T02:09:34;100152.16;;;9.68;37.96
66385;BME280;53426;55.872;37.462;2023-04-19T02:12:01;100103.03;;;9.40;38.10
66385;BME280;53426;55.872;37.462;2023-04-19T02:14:27;100142.53;;;9.66;38.10
66385;BME280;53426;55.872;37.462;2023-04-19T02:23:13;100174.47;;;9.76;38.03
66385;BME280;53426;55.872;37.462;2023-04-19T02:25:41;100151.03;;;9.59;38.59
66385;BME280;53426;55.872;37.462;2023-04-19T02:28:07;100144.78;;;9.47;38.57
66385;BME280;53426;55.872;37.462;2023-04-19T02:30:35;100036.19;;;8.89;38.50
66385;BME280;53426;55.872;37.462;2023-04-19T02:33:01;100186.09;;;9.74;38.36
66385;BME280;53426;55.872;37.462;2023-04-19T02:35:27;100116.25;;;9.27;38.31
66385;BME280;53426;55.872;37.462;2023-04-19T02:40:46;100146.91;;;9.42;38.98
66385;BME280;53426;55.872;37.462;2023-04-19T02:43:13;100171.75;;;9.52;38.80
66385;BME280;53426;55.872;37.462;2023-04-19T02:45:41;100160.66;;;9.47;39.01
66385;BME280;53426;55.872;37.462;2023-04-19T02:48:08;100182.22;;;9.54;39.10
66385;BME280;53426;55.872;37.462;2023-04-19T02:50:36;100182.75;;;9.59;39.38
66385;BME280;53426;55.872;37.462;2023-04-19T02:53:03;100188.97;;;9.58;39.15
66385;BME280;53426;55.872;37.462;2023-04-19T02:55:33;100191.28;;;9.62;39.46
66385;BME280;53426;55.872;37.462;2023-04-19T02:58:25;100184.44;;;9.60;39.48
66385;BME280;53426;55.872;37.462;2023-04-19T03:01:08;100194.88;;;9.61;39.26
66385;BME280;53426;55.872;37.462;2023-04-19T03:03:34;100160.00;;;9.44;39.22
66385;BME280;53426;55.872;37.462;2023-04-19T03:06:01;100159.78;;;9.47;39.44
66385;BME280;53426;55.872;37.462;2023-04-19T03:08:28;100168.56;;;9.47;39.20
66385;BME280;53426;55.872;37.462;2023-04-19T03:10:55;100187.81;;;9.62;39.33
66385;BME280;53426;55.872;37.462;2023-04-19T03:13:21;100167.09;;;9.43;39.66
66385;BME280;53426;55.872;37.462;2023-04-19T03:15:51;100208.31;;;9.71;39.19
66385;BME280;53426;55.872;37.462;2023-04-19T03:18:20;100140.88;;;9.40;39.02
66385;BME280;53426;55.872;37.462;2023-04-19T03:20:46;100189.28;;;9.79;39.01
66385;BME280;53426;55.872;37.462;2023-04-19T03:23:12;100147.44;;;9.47;38.92
66385;BME280;53426;55.872;37.462;2023-04-19T03:26:05;100198.66;;;9.83;38.57
66385;BME280;53426;55.872;37.462;2023-04-19T03:28:44;100164.44;;;9.69;38.88
66385;BME280;53426;55.872;37.462;2023-04-19T03:31:28;100192.34;;;9.85;39.05
66385;BME280;53426;55.872;37.462;2023-04-19T03:33:55;100194.66;;;9.77;38.58
66385;BME280;53426;55.872;37.462;2023-04-19T03:36:29;100184.81;;;9.79;38.30
66385;BME280;53426;55.872;37.462;2023-04-19T03:39:02;100198.25;;;9.89;38.75
66385;BME280;53426;55.872;37.462;2023-04-19T03:41:29;100209.16;;;9.84;38.89
66385;BME280;53426;55.872;37.462;2023-04-19T03:44:05;100137.28;;;9.54;38.72
66385;BME280;53426;55.872;37.462;2023-04-19T03:46:31;100199.59;;;9.94;38.43
66385;BME280;53426;55.872;37.462;2023-04-19T03:48:58;100152.91;;;9.70;37.73
66385;BME280;53426;55.872;37.462;2023-04-19T03:51:25;100115.47;;;9.50;38.21
66385;BME280;53426;55.872;37.462;2023-04-19T03:53:52;100199.69;;;10.18;38.10
66385;BME280;53426;55.872;37.462;2023-04-19T03:56:18;100162.69;;;9.93;37.98
66385;BME280;53426;55.872;37.462;2023-04-19T03:58:46;100183.63;;;10.08;37.95
66385;BME280;53426;55.872;37.462;2023-04-19T04:01:19;100193.56;;;10.18;38.05
66385;BME280;53426;55.872;37.462;2023-04-19T04:03:46;100188.78;;;10.10;38.21
66385;BME280;53426;55.872;37.462;2023-04-19T04:06:15;100178.69;;;10.15;37.61
66385;BME280;53426;55.872;37.462;2023-04-19T04:08:44;100195.78;;;10.47;37.59
66385;BME280;53426;55.872;37.462;2023-04-19T04:11:11;100177.72;;;10.41;37.54
66385;BME280;53426;55.872;37.462;2023-04-19T04:13:39;100177.28;;;10.59;37.14
66385;BME280;53426;55.872;37.462;2023-04-19T04:16:11;100182.78;;;10.68;36.81
66385;BME280;53426;55.872;37.462;2023-04-19T04:18:37;100164.09;;;10.70;36.69
66385;BME280;53426;55.872;37.462;2023-04-19T04:21:08;100135.66;;;10.61;36.34
66385;BME280;53426;55.872;37.462;2023-04-19T04:23:36;100215.91;;;11.09;36.25
66385;BME280;53426;55.872;37.462;2023-04-19T04:26:06;100201.34;;;11.14;36.05
66385;BME280;53426;55.872;37.462;2023-04-19T04:28:57;100055.09;;;10.41;36.08
66385;BME280;53426;55.872;37.462;2023-04-19T04:31:24;100205.78;;;11.49;35.53
66385;BME280;53426;55.872;37.462;2023-04-19T04:33:50;100150.81;;;11.28;35.25
66385;BME280;53426;55.872;37.462;2023-04-19T04:36:20;100121.38;;;11.31;34.85
66385;BME280;53426;55.872;37.462;2023-04-19T04:39:14;100201.22;;;12.06;35.27
66385;BME280;53426;55.872;37.462;2023-04-19T04:41:42;100204.25;;;12.24;34.38
66385;BME280;53426;55.872;37.462;2023-04-19T04:44:08;100174.28;;;12.33;34.18
66385;BME280;53426;55.872;37.462;2023-04-19T04:46:38;100176.59;;;12.70;33.70
66385;BME280;53426;55.872;37.462;2023-04-19T04:49:05;100183.03;;;12.56;33.77
66385;BME280;53426;55.872;37.462;2023-04-19T04:51:37;100204.44;;;12.54;34.30
66385;BME280;53426;55.872;37.462;2023-04-19T04:54:04;100200.75;;;12.67;33.88
66385;BME280;53426;55.872;37.462;2023-04-19T04:56:37;100210.06;;;12.93;33.56
66385;BME280;53426;55.872;37.462;2023-04-19T04:59:04;100200.56;;;13.11;32.82
66385;BME280;53426;55.872;37.462;2023-04-19T05:01:34;100186.25;;;13.44;32.79
66385;BME280;53426;55.872;37.462;2023-04-19T05:04:00;100198.63;;;14.55;31.22
66385;BME280;53426;55.872;37.462;2023-04-19T05:06:26;100204.88;;;15.70;29.30
66385;BME280;53426;55.872;37.462;2023-04-19T05:08:52;100165.06;;;16.13;28.19
66385;BME280;53426;55.872;37.462;2023-04-19T05:11:35;100215.09;;;16.39;28.19
66385;BME280;53426;55.872;37.462;2023-04-19T05:14:02;100213.13;;;16.68;27.49
66385;BME280;53426;55.872;37.462;2023-04-19T05:16:31;100195.41;;;17.02;26.46
66385;BME280;53426;55.872;37.462;2023-04-19T05:18:58;100175.00;;;17.45;25.56
66385;BME280;53426;55.872;37.462;2023-04-19T05:21:27;100228.53;;;17.88;24.79
66385;BME280;53426;55.872;37.462;2023-04-19T05:23:53;100196.41;;;17.45;24.71
66385;BME280;53426;55.872;37.462;2023-04-19T05:26:20;100218.38;;;17.31;24.31
66385;BME280;53426;55.872;37.462;2023-04-19T05:28:47;100229.78;;;17.33;24.07
66385;BME280;53426;55.872;37.462;2023-04-19T05:31:28;100231.63;;;17.76;23.54
66385;BME280;53426;55.872;37.462;2023-04-19T05:37:37;100231.63;;;15.31;25.97
66385;BME280;53426;55.872;37.462;2023-04-19T05:40:33;100209.56;;;15.20;26.97
66385;BME280;53426;55.872;37.462;2023-04-19T05:43:00;100206.38;;;16.09;25.07
66385;BME280;53426;55.872;37.462;2023-04-19T05:45:29;100219.78;;;17.17;24.33
66385;BME280;53426;55.872;37.462;2023-04-19T05:48:15;100089.66;;;17.76;23.22
66385;BME280;53426;55.872;37.462;2023-04-19T05:51:49;100105.38;;;17.71;23.46
66385;BME280;53426;55.872;37.462;2023-04-19T05:54:35;100209.03;;;17.78;24.13
66385;BME280;53426;55.872;37.462;2023-04-19T05:57:01;100207.38;;;17.77;24.04
66385;BME280;53426;55.872;37.462;2023-04-19T05:59:28;100232.81;;;19.07;23.50
66385;BME280;53426;55.872;37.462;2023-04-19T06:01:54;100233.47;;;19.90;21.71
66385;BME280;53426;55.872;37.462;2023-04-19T06:07:49;100234.22;;;20.15;21.49
66385;BME280;53426;55.872;37.462;2023-04-19T06:10:28;100157.47;;;18.85;22.65
66385;BME280;53426;55.872;37.462;2023-04-19T06:12:53;100248.75;;;19.09;22.33
66385;BME280;53426;55.872;37.462;2023-04-19T06:19:48;100129.34;;;17.80;24.04
66385;BME280;53426;55.872;37.462;2023-04-19T06:22:17;100143.56;;;17.03;23.84
66385;BME280;53426;55.872;37.462;2023-04-19T06:24:44;100239.66;;;17.58;24.21
66385;BME280;53426;55.872;37.462;2023-04-19T06:30:42;100243.88;;;16.99;24.22
66385;BME280;53426;55.872;37.462;2023-04-19T06:33:09;100228.41;;;17.29;23.32
66385;BME280;53426;55.872;37.462;2023-04-19T06:35:35;100248.38;;;18.88;21.96
66385;BME280;53426;55.872;37.462;2023-04-19T06:38:01;100243.22;;;19.18;21.69
66385;BME280;53426;55.872;37.462;2023-04-19T06:40:27;100234.66;;;19.80;20.81
66385;BME280;53426;55.872;37.462;2023-04-19T06:42:56;100205.81;;;19.57;20.65
66385;BME280;53426;55.872;37.462;2023-04-19T06:45:22;100238.38;;;19.54;21.05
66385;BME280;53426;55.872;37.462;2023-04-19T06:47:48;100216.97;;;19.93;20.03
66385;BME280;53426;55.872;37.462;2023-04-19T06:50:14;100230.69;;;20.62;19.94
66385;BME280;53426;55.872;37.462;2023-04-19T06:55:29;100219.28;;;22.03;18.31
66385;BME280;53426;55.872;37.462;2023-04-19T06:57:55;100236.03;;;21.61;18.79
66385;BME280;53426;55.872;37.462;2023-04-19T07:00:22;100255.03;;;20.21;21.03
66385;BME280;53426;55.872;37.462;2023-04-19T07:02:49;100254.78;;;19.11;22.47
66385;BME280;53426;55.872;37.462;2023-04-19T07:05:15;100245.84;;;18.36;23.60
66385;BME280;53426;55.872;37.462;2023-04-19T07:07:41;100249.59;;;17.83;24.60
66385;BME280;53426;55.872;37.462;2023-04-19T07:10:08;100244.63;;;17.96;24.06
66385;BME280;53426;55.872;37.462;2023-04-19T07:12:34;100248.41;;;18.12;23.75
66385;BME280;53426;55.872;37.462;2023-04-19T07:15:01;100240.88;;;18.49;23.23
66385;BME280;53426;55.872;37.462;2023-04-19T07:17:29;100242.34;;;18.86;23.11
66385;BME280;53426;55.872;37.462;2023-04-19T07:19:55;100250.25;;;19.03;22.67
66385;BME280;53426;55.872;37.462;2023-04-19T07:22:21;100239.75;;;20.14;22.00
66385;BME280;53426;55.872;37.462;2023-04-19T07:24:47;100240.50;;;19.91;21.70
66385;BME280;53426;55.872;37.462;2023-04-19T07:27:16;100247.75;;;19.58;22.60
66385;BME280;53426;55.872;37.462;2023-04-19T07:29:44;100247.88;;;20.53;22.36
66385;BME280;53426;55.872;37.462;2023-04-19T07:44:19;100233.28;;;21.01;21.28
66385;BME280;53426;55.872;37.462;2023-04-19T07:46:46;100228.31;;;20.67;21.17
66385;BME280;53426;55.872;37.462;2023-04-19T07:52:18;100171.16;;;21.48;20.51
66385;BME280;53426;55.872;37.462;2023-04-19T07:54:48;100148.69;;;20.95;20.74
66385;BME280;53426;55.872;37.462;2023-04-19T07:57:15;100125.44;;;21.54;19.57
66385;BME280;53426;55.872;37.462;2023-04-19T08:00:41;100118.63;;;21.88;19.92
66385;BME280;53426;55.872;37.462;2023-04-19T08:03:11;100244.00;;;22.86;18.74
66385;BME280;53426;55.872;37.462;2023-04-19T08:05:40;100212.66;;;22.05;19.18
66385;BME280;53426;55.872;37.462;2023-04-19T08:08:31;100224.00;;;21.86;19.43
66385;BME280;53426;55.872;37.462;2023-04-19T08:10:57;100233.78;;;22.02;19.58
66385;BME280;53426;55.872;37.462;2023-04-19T08:13:23;100235.56;;;22.24;18.97
66385;BME280;53426;55.872;37.462;2023-04-19T08:18:41;100230.66;;;23.21;18.21
66385;BME280;53426;55.872;37.462;2023-04-19T08:21:09;100232.53;;;22.48;18.57
66385;BME280;53426;55.872;37.462;2023-04-19T08:23:36;100176.34;;;22.52;18.58
66385;BME280;53426;55.872;37.462;2023-04-19T08:26:04;100233.69;;;23.54;17.99
66385;BME280;53426;55.872;37.462;2023-04-19T08:28:30;100243.69;;;24.43;17.40
66385;BME280;53426;55.872;37.462;2023-04-19T08:30:58;100233.19;;;24.34;17.04
66385;BME280;53426;55.872;37.462;2023-04-19T08:33:27;100180.75;;;23.17;18.23
66385;BME280;53426;55.872;37.462;2023-04-19T08:35:53;100191.69;;;22.87;18.03
66385;BME280;53426;55.872;37.462;2023-04-19T08:38:31;100251.53;;;23.48;17.79
66385;BME280;53426;55.872;37.462;2023-04-19T08:45:26;100243.47;;;23.12;18.30
66385;BME280;53426;55.872;37.462;2023-04-19T08:47:53;100242.28;;;23.64;17.09
66385;BME280;53426;55.872;37.462;2023-04-19T08:50:21;100238.81;;;23.98;16.86
66385;BME280;53426;55.872;37.462;2023-04-19T08:52:53;100218.81;;;23.43;17.31
66385;BME280;53426;55.872;37.462;2023-04-19T08:55:28;100220.06;;;22.98;17.66
66385;BME280;53426;55.872;37.462;2023-04-19T08:57:55;100212.66;;;22.35;17.98
66385;BME280;53426;55.872;37.462;2023-04-19T09:00:22;100237.50;;;22.96;17.70
66385;BME280;53426;55.872;37.462;2023-04-19T09:02:50;100229.31;;;23.10;17.53
66385;BME280;53426;55.872;37.462;2023-04-19T09:05:17;100187.19;;;24.27;17.05
66385;BME280;53426;55.872;37.462;2023-04-19T09:07:44;100211.50;;;23.16;16.46
66385;BME280;53426;55.872;37.462;2023-04-19T09:10:16;100184.00;;;22.84;17.06
66385;BME280;53426;55.872;37.462;2023-04-19T09:13:09;100237.34;;;23.67;17.13
66385;BME280;53426;55.872;37.462;2023-04-19T09:15:56;100235.94;;;24.40;16.84
66385;BME280;53426;55.872;37.462;2023-04-19T09:22:25;100187.97;;;24.82;16.32
66385;BME280;53426;55.872;37.462;2023-04-19T09:24:51;100220.75;;;23.28;17.31
66385;BME280;53426;55.872;37.462;2023-04-19T09:27:31;100210.25;;;23.89;17.29
66385;BME280;53426;55.872;37.462;2023-04-19T09:29:59;100183.28;;;23.67;17.62
66385;BME280;53426;55.872;37.462;2023-04-19T09:32:28;100102.50;;;23.30;16.76
66385;BME280;53426;55.872;37.462;2023-04-19T09:34:56;100158.66;;;22.85;17.14
66385;BME280;53426;55.872;37.462;2023-04-19T09:37:26;100193.94;;;23.05;17.76
66385;BME280;53426;55.872;37.462;2023-04-19T09:39:52;100172.66;;;22.96;17.46
66385;BME280;53426;55.872;37.462;2023-04-19T09:42:18;100188.63;;;23.12;17.45
66385;BME280;53426;55.872;37.462;2023-04-19T09:44:55;100186.00;;;23.74;17.18
66385;BME280;53426;55.872;37.462;2023-04-19T09:47:26;100184.38;;;23.52;17.42
66385;BME280;53426;55.872;37.462;2023-04-19T09:50:10;100205.75;;;23.74;17.73
66385;BME280;53426;55.872;37.462;2023-04-19T09:52:36;100182.28;;;23.47;17.42
66385;BME280;53426;55.872;37.462;2023-04-19T09:55:04;100196.63;;;23.75;17.46
66385;BME280;53426;55.872;37.462;2023-04-19T09:57:33;100197.06;;;23.30;17.76
66385;BME280;53426;55.872;37.462;2023-04-19T10:00:00;100168.16;;;23.03;17.91
66385;BME280;53426;55.872;37.462;2023-04-19T10:02:30;100186.91;;;23.53;17.70
66385;BME280;53426;55.872;37.462;2023-04-19T10:04:59;100164.06;;;24.31;16.93
66385;BME280;53426;55.872;37.462;2023-04-19T10:07:26;100172.13;;;24.18;17.62
66385;BME280;53426;55.872;37.462;2023-04-19T10:09:57;100180.41;;;24.57;17.05
66385;BME280;53426;55.872;37.462;2023-04-19T10:12:24;100175.56;;;25.14;16.48
66385;BME280;53426;55.872;37.462;2023-04-19T10:14:53;100165.63;;;24.60;16.38
66385;BME280;53426;55.872;37.462;2023-04-19T10:17:21;100186.66;;;24.58;16.84
66385;BME280;53426;55.872;37.462;2023-04-19T10:19:51;100198.03;;;25.01;16.54
66385;BME280;53426;55.872;37.462;2023-04-19T10:22:20;100178.44;;;24.99;17.30
66385;BME280;53426;55.872;37.462;2023-04-19T10:25:15;100188.06;;;25.74;16.54
66385;BME280;53426;55.872;37.462;2023-04-19T10:27:44;100179.41;;;24.78;16.40
66385;BME280;53426;55.872;37.462;2023-04-19T10:30:24;100148.84;;;24.24;16.65
66385;BME280;53426;55.872;37.462;2023-04-19T10:32:55;100170.09;;;24.94;16.40
66385;BME280;53426;55.872;37.462;2023-04-19T10:35:26;100165.16;;;24.43;16.79
66385;BME280;53426;55.872;37.462;2023-04-19T10:43:28;100157.38;;;23.30;17.51
66385;BME280;53426;55.872;37.462;2023-04-19T10:45:58;100146.06;;;23.20;17.52
66385;BME280;53426;55.872;37.462;2023-04-19T10:51:22;100180.84;;;23.30;17.69
66385;BME280;53426;55.872;37.462;2023-04-19T10:59:26;100174.47;;;22.88;17.97
66385;BME280;53426;55.872;37.462;2023-04-19T11:02:03;100148.81;;;22.42;18.19
66385;BME280;53426;55.872;37.462;2023-04-19T11:07:18;100150.19;;;21.20;19.26
66385;BME280;53426;55.872;37.462;2023-04-19T11:09:47;100132.47;;;21.03;19.65
66385;BME280;53426;55.872;37.462;2023-04-19T11:12:21;100166.28;;;20.60;20.14
66385;BME280;53426;55.872;37.462;2023-04-19T11:14:52;100146.63;;;20.21;20.40
66385;BME280;53426;55.872;37.462;2023-04-19T11:17:31;100151.69;;;19.85;20.85
66385;BME280;53426;55.872;37.462;2023-04-19T11:20:02;100155.78;;;19.40;21.25
66385;BME280;53426;55.872;37.462;2023-04-19T11:22:38;100148.03;;;19.37;21.75
66385;BME280;53426;55.872;37.462;2023-04-19T11:25:14;100116.75;;;18.97;21.83
66385;BME280;53426;55.872;37.462;2023-04-19T11:27:43;100139.03;;;18.98;22.24
66385;BME280;53426;55.872;37.462;2023-04-19T11:30:15;100149.56;;;18.59;22.36
66385;BME280;53426;55.872;37.462;2023-04-19T11:32:51;100116.19;;;17.95;22.81
66385;BME280;53426;55.872;37.462;2023-04-19T11:35:25;100111.44;;;17.81;23.03
66385;BME280;53426;55.872;37.462;2023-04-19T11:38:03;100120.53;;;17.88;23.42
66385;BME280;53426;55.872;37.462;2023-04-19T11:40:30;100136.66;;;18.04;23.15
66385;BME280;53426;55.872;37.462;2023-04-19T11:42:58;100137.66;;;18.03;23.23
66385;BME280;53426;55.872;37.462;2023-04-19T11:45:30;100118.28;;;17.75;23.62
66385;BME280;53426;55.872;37.462;2023-04-19T11:48:05;100114.94;;;17.47;23.41
66385;BME280;53426;55.872;37.462;2023-04-19T11:50:42;100129.31;;;17.21;23.77
66385;BME280;53426;55.872;37.462;2023-04-19T11:53:17;100129.66;;;17.18;23.79
66385;BME280;53426;55.872;37.462;2023-04-19T11:55:51;100127.13;;;17.16;24.05
66385;BME280;53426;55.872;37.462;2023-04-19T11:58:28;100134.78;;;17.37;23.60
66385;BME280;53426;55.872;37.462;2023-04-19T12:01:11;100122.59;;;17.17;23.73
66385;BME280;53426;55.872;37.462;2023-04-19T12:03:51;100106.28;;;17.02;23.89
66385;BME280;53426;55.872;37.462;2023-04-19T12:06:22;100095.13;;;17.06;23.94
66385;BME280;53426;55.872;37.462;2023-04-19T12:08:51;100121.72;;;17.34;23.65
66385;BME280;53426;55.872;37.462;2023-04-19T12:11:22;100116.09;;;17.45;23.49
66385;BME280;53426;55.872;37.462;2023-04-19T12:14:12;100117.56;;;17.39;23.60
66385;BME280;53426;55.872;37.462;2023-04-19T12:16:41;100106.59;;;16.99;24.20
66385;BME280;53426;55.872;37.462;2023-04-19T12:19:17;100119.88;;;17.08;24.00
66385;BME280;53426;55.872;37.462;2023-04-19T12:21:46;100110.72;;;17.19;23.97
66385;BME280;53426;55.872;37.462;2023-04-19T12:24:16;100104.78;;;17.07;23.96
66385;BME280;53426;55.872;37.462;2023-04-19T12:26:53;100106.19;;;17.11;23.78
66385;BME280;53426;55.872;37.462;2023-04-19T12:29:20;100106.38;;;16.92;23.79
66385;BME280;53426;55.872;37.462;2023-04-19T12:31:46;100103.06;;;16.98;23.98
66385;BME280;53426;55.872;37.462;2023-04-19T12:34:14;100092.59;;;17.05;23.37
66385;BME280;53426;55.872;37.462;2023-04-19T12:36:40;100104.13;;;17.05;23.51
66385;BME280;53426;55.872;37.462;2023-04-19T12:39:08;100095.31;;;17.13;23.54
66385;BME280;53426;55.872;37.462;2023-04-19T12:41:34;100086.28;;;17.14;23.48
66385;BME280;53426;55.872;37.462;2023-04-19T12:44:01;100086.63;;;17.11;23.59
66385;BME280;53426;55.872;37.462;2023-04-19T12:46:27;100088.41;;;17.28;23.70
66385;BME280;53426;55.872;37.462;2023-04-19T12:48:54;100089.38;;;17.27;23.16
66385;BME280;53426;55.872;37.462;2023-04-19T12:51:20;100080.72;;;17.07;23.27
66385;BME280;53426;55.872;37.462;2023-04-19T12:53:49;100098.03;;;17.21;24.21
66385;BME280;53426;55.872;37.462;2023-04-19T12:56:16;100059.50;;;17.06;23.55
66385;BME280;53426;55.872;37.462;2023-04-19T12:58:42;100083.56;;;17.32;23.20
66385;BME280;53426;55.872;37.462;2023-04-19T13:01:08;100083.88;;;17.29;23.41
66385;BME280;53426;55.872;37.462;2023-04-19T13:03:34;100091.50;;;17.15;23.17
66385;BME280;53426;55.872;37.462;2023-04-19T13:06:02;100096.59;;;17.01;23.25
66385;BME280;53426;55.872;37.462;2023-04-19T13:08:28;100063.88;;;16.63;23.04
66385;BME280;53426;55.872;37.462;2023-04-19T13:10:57;100076.22;;;16.64;23.34
66385;BME280;53426;55.872;37.462;2023-04-19T13:13:28;100090.56;;;16.81;23.03
66385;BME280;53426;55.872;37.462;2023-04-19T13:15:54;100078.88;;;16.82;22.99
66385;BME280;53426;55.872;37.462;2023-04-19T13:18:20;100091.31;;;16.91;23.86
66385;BME280;53426;55.872;37.462;2023-04-19T13:20:47;100085.81;;;16.75;23.30
66385;BME280;53426;55.872;37.462;2023-04-19T13:23:14;100083.00;;;16.77;22.97
66385;BME280;53426;55.872;37.462;2023-04-19T13:25:40;100059.03;;;16.67;23.26
66385;BME280;53426;55.872;37.462;2023-04-19T13:28:06;100084.78;;;16.68;23.07
66385;BME280;53426;55.872;37.462;2023-04-19T13:30:31;100073.47;;;16.56;23.35
66385;BME280;53426;55.872;37.462;2023-04-19T13:32:57;100075.97;;;16.76;23.15
66385;BME280;53426;55.872;37.462;2023-04-19T13:35:25;100053.06;;;16.73;23.18
66385;BME280;53426;55.872;37.462;2023-04-19T13:37:51;100061.00;;;16.65;23.40
66385;BME280;53426;55.872;37.462;2023-04-19T13:40:17;100070.34;;;16.79;23.44
66385;BME280;53426;55.872;37.462;2023-04-19T13:42:43;100070.56;;;16.85;22.92
66385;BME280;53426;55.872;37.462;2023-04-19T13:45:12;100082.38;;;17.00;23.07
66385;BME280;53426;55.872;37.462;2023-04-19T13:47:38;100072.44;;;16.93;23.41
66385;BME280;53426;55.872;37.462;2023-04-19T13:50:04;100055.78;;;16.81;23.05
66385;BME280;53426;55.872;37.462;2023-04-19T13:52:30;100054.66;;;16.84;23.69
66385;BME280;53426;55.872;37.462;2023-04-19T13:54:56;100073.75;;;16.89;23.38
66385;BME280;53426;55.872;37.462;2023-04-19T13:57:22;100075.50;;;16.80;23.00
66385;BME280;53426;55.872;37.462;2023-04-19T13:59:48;100046.03;;;16.54;22.90
66385;BME280;53426;55.872;37.462;2023-04-19T14:02:14;100054.53;;;16.67;23.08
66385;BME280;53426;55.872;37.462;2023-04-19T14:04:39;100069.50;;;16.60;23.14
66385;BME280;53426;55.872;37.462;2023-04-19T14:07:05;100071.34;;;16.60;23.49
66385;BME280;53426;55.872;37.462;2023-04-19T14:09:31;100069.94;;;16.56;23.02
66385;BME280;53426;55.872;37.462;2023-04-19T14:11:57;100034.97;;;16.31;23.15
66385;BME280;53426;55.872;37.462;2023-04-19T14:14:24;100029.94;;;16.28;23.33
66385;BME280;53426;55.872;37.462;2023-04-19T14:16:51;100040.16;;;16.33;23.16